sensor_id;sensor_type;location;lat;lon;timestamp;P1;durP1;ratioP1;P2;durP2;ratioP2
10637;SDS011;47007;49.252;8.904;2023-05-07T00:00:19;1.55;;;1.40;;
10637;SDS011;47007;49.252;8.904;2023-05-07T00:01:00;1.15;;;1.15;;
10637;SDS011;47007;49.252;8.904;2023-05-07T00:01:42;1.80;;;1.60;;
10637;SDS011;47007;49.252;8.904;2023-05-07T00:02:25;1.17;;;1.08;;
10637;SDS011;47007;49.252;8.904;2023-05-07T00:03:07;0.98;;;0.98;;
10637;SDS011;47007;49.252;8.904;2023-05-07T00:03:49;1.35;;;1.25;;
10637;SDS011;47007;49.252;8.904;2023-05-07T00:04:31;1.20;;;1.20;;
10637;SDS011;47007;49.252;8.904;2023-05-07T00:05:18;1.50;;;1.10;;
10637;SDS011;47007;49.252;8.904;2023-05-07T00:06:00;1.25;;;1.15;;
10637;SDS011;47007;49.252;8.904;2023-05-07T00:06:42;1.90;;;1.25;;
10637;SDS011;47007;49.252;8.904;2023-05-07T00:07:24;1.60;;;1.48;;
10637;SDS011;47007;49.252;8.904;2023-05-07T00:08:05;2.05;;;1.38;;
10637;SDS011;47007;49.252;8.904;2023-05-07T00:08:47;1.42;;;1.33;;
10637;SDS011;47007;49.252;8.904;2023-05-07T00:09:28;1.80;;;1.40;;
10637;SDS011;47007;49.252;8.904;2023-05-07T00:10:10;1.70;;;1.60;;
10637;SDS011;47007;49.252;8.904;2023-05-07T00:10:54;1.30;;;1.25;;
10637;SDS011;47007;49.252;8.904;2023-05-07T00:11:35;2.05;;;1.73;;
10637;SDS011;47007;49.252;8.904;2023-05-07T00:12:17;2.20;;;2.10;;
10637;SDS011;47007;49.252;8.904;2023-05-07T00:12:59;2.22;;;2.00;;
10637;SDS011;47007;49.252;8.904;2023-05-07T00:13:41;2.53;;;2.10;;
10637;SDS011;47007;49.252;8.904;2023-05-07T00:14:23;2.10;;;1.90;;
10637;SDS011;47007;49.252;8.904;2023-05-07T00:15:05;1.70;;;1.60;;
10637;SDS011;47007;49.252;8.904;2023-05-07T00:15:47;1.60;;;1.50;;
10637;SDS011;47007;49.252;8.904;2023-05-07T00:16:29;1.85;;;1.73;;
10637;SDS011;47007;49.252;8.904;2023-05-07T00:17:11;1.30;;;1.27;;
10637;SDS011;47007;49.252;8.904;2023-05-07T00:17:53;1.42;;;1.33;;
10637;SDS011;47007;49.252;8.904;2023-05-07T00:18:34;1.35;;;1.25;;
10637;SDS011;47007;49.252;8.904;2023-05-07T00:19:16;1.50;;;1.40;;
10637;SDS011;47007;49.252;8.904;2023-05-07T00:19:58;1.30;;;1.15;;
10637;SDS011;47007;49.252;8.904;2023-05-07T00:20:39;2.60;;;1.50;;
10637;SDS011;47007;49.252;8.904;2023-05-07T00:21:21;1.27;;;1.20;;
10637;SDS011;47007;49.252;8.904;2023-05-07T00:22:03;1.58;;;1.25;;
10637;SDS011;47007;49.252;8.904;2023-05-07T00:22:44;1.42;;;1.30;;
10637;SDS011;47007;49.252;8.904;2023-05-07T00:23:26;1.38;;;1.27;;
10637;SDS011;47007;49.252;8.904;2023-05-07T00:24:08;0.98;;;0.98;;
10637;SDS011;47007;49.252;8.904;2023-05-07T00:24:49;1.35;;;1.25;;
10637;SDS011;47007;49.252;8.904;2023-05-07T00:25:31;1.25;;;1.20;;
10637;SDS011;47007;49.252;8.904;2023-05-07T00:26:12;0.90;;;0.90;;
10637;SDS011;47007;49.252;8.904;2023-05-07T00:26:56;1.20;;;1.20;;
10637;SDS011;47007;49.252;8.904;2023-05-07T00:27:39;2.35;;;1.30;;
10637;SDS011;47007;49.252;8.904;2023-05-07T00:28:21;2.10;;;1.17;;
10637;SDS011;47007;49.252;8.904;2023-05-07T00:29:02;1.40;;;1.20;;
10637;SDS011;47007;49.252;8.904;2023-05-07T00:29:44;1.60;;;1.15;;
10637;SDS011;47007;49.252;8.904;2023-05-07T00:30:26;1.13;;;1.10;;
10637;SDS011;47007;49.252;8.904;2023-05-07T00:31:07;1.10;;;1.10;;
10637;SDS011;47007;49.252;8.904;2023-05-07T00:31:50;1.25;;;1.17;;
10637;SDS011;47007;49.252;8.904;2023-05-07T00:32:32;1.00;;;1.00;;
10637;SDS011;47007;49.252;8.904;2023-05-07T00:33:14;1.52;;;1.23;;
10637;SDS011;47007;49.252;8.904;2023-05-07T00:33:56;2.00;;;1.55;;
10637;SDS011;47007;49.252;8.904;2023-05-07T00:34:37;1.48;;;1.00;;
10637;SDS011;47007;49.252;8.904;2023-05-07T00:35:20;1.50;;;1.05;;
10637;SDS011;47007;49.252;8.904;2023-05-07T00:36:02;1.27;;;1.17;;
10637;SDS011;47007;49.252;8.904;2023-05-07T00:36:44;1.90;;;1.20;;
10637;SDS011;47007;49.252;8.904;2023-05-07T00:37:26;1.20;;;1.10;;
10637;SDS011;47007;49.252;8.904;2023-05-07T00:38:07;1.42;;;1.17;;
10637;SDS011;47007;49.252;8.904;2023-05-07T00:38:49;1.83;;;1.50;;
10637;SDS011;47007;49.252;8.904;2023-05-07T00:39:31;1.38;;;1.33;;
10637;SDS011;47007;49.252;8.904;2023-05-07T00:40:12;1.40;;;1.27;;
10637;SDS011;47007;49.252;8.904;2023-05-07T00:40:54;1.85;;;1.70;;
10637;SDS011;47007;49.252;8.904;2023-05-07T00:41:36;2.00;;;1.65;;
10637;SDS011;47007;49.252;8.904;2023-05-07T00:42:18;1.52;;;1.40;;
10637;SDS011;47007;49.252;8.904;2023-05-07T00:42:59;2.33;;;1.60;;
10637;SDS011;47007;49.252;8.904;2023-05-07T00:43:41;1.42;;;1.42;;
10637;SDS011;47007;49.252;8.904;2023-05-07T00:44:23;1.55;;;1.45;;
10637;SDS011;47007;49.252;8.904;2023-05-07T00:45:05;1.10;;;1.10;;
10637;SDS011;47007;49.252;8.904;2023-05-07T00:45:49;2.40;;;1.40;;
10637;SDS011;47007;49.252;8.904;2023-05-07T00:46:31;1.50;;;1.40;;
10637;SDS011;47007;49.252;8.904;2023-05-07T00:47:14;1.88;;;1.50;;
10637;SDS011;47007;49.252;8.904;2023-05-07T00:47:59;1.15;;;1.10;;
10637;SDS011;47007;49.252;8.904;2023-05-07T00:48:42;1.35;;;1.25;;
10637;SDS011;47007;49.252;8.904;2023-05-07T00:49:29;2.95;;;1.40;;
10637;SDS011;47007;49.252;8.904;2023-05-07T00:50:20;3.53;;;1.30;;
10637;SDS011;47007;49.252;8.904;2023-05-07T00:51:02;1.50;;;1.40;;
10637;SDS011;47007;49.252;8.904;2023-05-07T00:51:44;1.92;;;1.77;;
10637;SDS011;47007;49.252;8.904;2023-05-07T00:52:26;1.77;;;1.50;;
10637;SDS011;47007;49.252;8.904;2023-05-07T00:53:09;0.95;;;0.95;;
10637;SDS011;47007;49.252;8.904;2023-05-07T00:53:50;1.10;;;1.10;;
10637;SDS011;47007;49.252;8.904;2023-05-07T00:54:32;1.40;;;1.30;;
10637;SDS011;47007;49.252;8.904;2023-05-07T00:55:15;1.48;;;1.30;;
10637;SDS011;47007;49.252;8.904;2023-05-07T00:55:57;2.45;;;1.40;;
10637;SDS011;47007;49.252;8.904;2023-05-07T00:56:39;1.48;;;1.38;;
10637;SDS011;47007;49.252;8.904;2023-05-07T00:57:21;1.30;;;1.20;;
10637;SDS011;47007;49.252;8.904;2023-05-07T00:58:03;1.63;;;1.20;;
10637;SDS011;47007;49.252;8.904;2023-05-07T00:58:46;1.30;;;1.23;;
10637;SDS011;47007;49.252;8.904;2023-05-07T00:59:28;1.70;;;1.60;;
10637;SDS011;47007;49.252;8.904;2023-05-07T01:00:12;1.55;;;1.30;;
10637;SDS011;47007;49.252;8.904;2023-05-07T01:00:55;2.03;;;1.60;;
10637;SDS011;47007;49.252;8.904;2023-05-07T01:02:50;1.65;;;1.55;;
10637;SDS011;47007;49.252;8.904;2023-05-07T01:03:32;3.38;;;1.35;;
10637;SDS011;47007;49.252;8.904;2023-05-07T01:04:14;1.50;;;1.45;;
10637;SDS011;47007;49.252;8.904;2023-05-07T01:04:56;2.35;;;1.33;;
10637;SDS011;47007;49.252;8.904;2023-05-07T01:05:39;1.50;;;1.40;;
10637;SDS011;47007;49.252;8.904;2023-05-07T01:06:23;2.40;;;1.90;;
10637;SDS011;47007;49.252;8.904;2023-05-07T01:07:07;1.95;;;1.63;;
10637;SDS011;47007;49.252;8.904;2023-05-07T01:07:49;1.85;;;1.60;;
10637;SDS011;47007;49.252;8.904;2023-05-07T01:08:34;1.77;;;1.67;;
10637;SDS011;47007;49.252;8.904;2023-05-07T01:09:17;1.70;;;1.60;;
10637;SDS011;47007;49.252;8.904;2023-05-07T01:10:01;1.70;;;1.60;;
10637;SDS011;47007;49.252;8.904;2023-05-07T01:10:44;2.72;;;1.70;;
10637;SDS011;47007;49.252;8.904;2023-05-07T01:11:27;1.98;;;1.77;;
10637;SDS011;47007;49.252;8.904;2023-05-07T01:12:09;3.42;;;1.73;;
10637;SDS011;47007;49.252;8.904;2023-05-07T01:12:51;2.17;;;1.92;;
10637;SDS011;47007;49.252;8.904;2023-05-07T01:13:34;1.58;;;1.38;;
10637;SDS011;47007;49.252;8.904;2023-05-07T01:14:18;1.77;;;1.67;;
10637;SDS011;47007;49.252;8.904;2023-05-07T01:15:02;1.65;;;1.40;;
10637;SDS011;47007;49.252;8.904;2023-05-07T01:15:44;1.75;;;1.65;;
10637;SDS011;47007;49.252;8.904;2023-05-07T01:16:26;1.77;;;1.67;;
10637;SDS011;47007;49.252;8.904;2023-05-07T01:17:11;1.67;;;1.58;;
10637;SDS011;47007;49.252;8.904;2023-05-07T01:17:53;1.40;;;1.30;;
10637;SDS011;47007;49.252;8.904;2023-05-07T01:18:41;2.10;;;1.60;;
10637;SDS011;47007;49.252;8.904;2023-05-07T01:19:23;2.08;;;1.98;;
10637;SDS011;47007;49.252;8.904;2023-05-07T01:20:05;1.70;;;1.60;;
10637;SDS011;47007;49.252;8.904;2023-05-07T01:20:48;1.65;;;1.55;;
10637;SDS011;47007;49.252;8.904;2023-05-07T01:21:31;1.67;;;1.55;;
10637;SDS011;47007;49.252;8.904;2023-05-07T01:22:16;1.60;;;1.50;;
10637;SDS011;47007;49.252;8.904;2023-05-07T01:23:15;1.55;;;1.45;;
10637;SDS011;47007;49.252;8.904;2023-05-07T01:23:59;1.63;;;1.52;;
10637;SDS011;47007;49.252;8.904;2023-05-07T01:24:41;1.60;;;1.50;;
10637;SDS011;47007;49.252;8.904;2023-05-07T01:25:23;1.85;;;1.75;;
10637;SDS011;47007;49.252;8.904;2023-05-07T01:26:08;2.10;;;1.50;;
10637;SDS011;47007;49.252;8.904;2023-05-07T01:26:50;1.85;;;1.63;;
10637;SDS011;47007;49.252;8.904;2023-05-07T01:27:32;1.35;;;1.25;;
10637;SDS011;47007;49.252;8.904;2023-05-07T01:28:18;1.52;;;1.50;;
10637;SDS011;47007;49.252;8.904;2023-05-07T01:29:01;1.55;;;1.45;;
10637;SDS011;47007;49.252;8.904;2023-05-07T01:29:42;1.83;;;1.45;;
10637;SDS011;47007;49.252;8.904;2023-05-07T01:30:25;1.52;;;1.42;;
10637;SDS011;47007;49.252;8.904;2023-05-07T01:31:08;2.35;;;1.80;;
10637;SDS011;47007;49.252;8.904;2023-05-07T01:31:51;1.85;;;1.30;;
10637;SDS011;47007;49.252;8.904;2023-05-07T01:32:43;1.27;;;1.27;;
10637;SDS011;47007;49.252;8.904;2023-05-07T01:33:31;1.40;;;1.30;;
10637;SDS011;47007;49.252;8.904;2023-05-07T01:34:16;1.25;;;1.20;;
10637;SDS011;47007;49.252;8.904;2023-05-07T01:35:00;1.70;;;1.50;;
10637;SDS011;47007;49.252;8.904;2023-05-07T01:35:45;2.00;;;1.90;;
10637;SDS011;47007;49.252;8.904;2023-05-07T01:36:29;1.95;;;1.75;;
10637;SDS011;47007;49.252;8.904;2023-05-07T01:37:13;1.88;;;1.70;;
10637;SDS011;47007;49.252;8.904;2023-05-07T01:37:56;4.28;;;3.00;;
10637;SDS011;47007;49.252;8.904;2023-05-07T01:38:39;3.67;;;2.90;;
10637;SDS011;47007;49.252;8.904;2023-05-07T01:39:23;2.80;;;2.60;;
10637;SDS011;47007;49.252;8.904;2023-05-07T01:40:07;2.00;;;1.90;;
10637;SDS011;47007;49.252;8.904;2023-05-07T01:40:50;1.98;;;1.88;;
10637;SDS011;47007;49.252;8.904;2023-05-07T01:41:32;1.70;;;1.60;;
10637;SDS011;47007;49.252;8.904;2023-05-07T01:42:14;1.27;;;1.27;;
10637;SDS011;47007;49.252;8.904;2023-05-07T01:42:56;1.42;;;1.33;;
10637;SDS011;47007;49.252;8.904;2023-05-07T01:43:38;2.22;;;1.63;;
10637;SDS011;47007;49.252;8.904;2023-05-07T01:44:22;1.85;;;1.67;;
10637;SDS011;47007;49.252;8.904;2023-05-07T01:45:05;1.60;;;1.50;;
10637;SDS011;47007;49.252;8.904;2023-05-07T01:45:47;1.50;;;1.30;;
10637;SDS011;47007;49.252;8.904;2023-05-07T01:46:30;2.05;;;1.50;;
10637;SDS011;47007;49.252;8.904;2023-05-07T01:47:13;2.38;;;1.58;;
10637;SDS011;47007;49.252;8.904;2023-05-07T01:47:55;1.60;;;1.50;;
10637;SDS011;47007;49.252;8.904;2023-05-07T01:48:39;1.40;;;1.08;;
10637;SDS011;47007;49.252;8.904;2023-05-07T01:49:21;1.38;;;1.27;;
10637;SDS011;47007;49.252;8.904;2023-05-07T01:50:05;1.77;;;1.67;;
10637;SDS011;47007;49.252;8.904;2023-05-07T01:50:50;2.25;;;1.98;;
10637;SDS011;47007;49.252;8.904;2023-05-07T01:51:32;2.00;;;1.70;;
10637;SDS011;47007;49.252;8.904;2023-05-07T01:52:15;3.28;;;1.80;;
10637;SDS011;47007;49.252;8.904;2023-05-07T01:52:56;1.33;;;1.23;;
10637;SDS011;47007;49.252;8.904;2023-05-07T01:53:39;1.65;;;1.35;;
10637;SDS011;47007;49.252;8.904;2023-05-07T01:54:25;1.90;;;1.77;;
10637;SDS011;47007;49.252;8.904;2023-05-07T01:55:12;1.85;;;1.70;;
10637;SDS011;47007;49.252;8.904;2023-05-07T01:55:54;1.70;;;1.60;;
10637;SDS011;47007;49.252;8.904;2023-05-07T01:56:37;1.58;;;1.48;;
10637;SDS011;47007;49.252;8.904;2023-05-07T01:57:19;2.03;;;1.60;;
10637;SDS011;47007;49.252;8.904;2023-05-07T01:58:00;1.63;;;1.52;;
10637;SDS011;47007;49.252;8.904;2023-05-07T01:58:42;1.95;;;1.83;;
10637;SDS011;47007;49.252;8.904;2023-05-07T01:59:24;1.52;;;1.40;;
10637;SDS011;47007;49.252;8.904;2023-05-07T02:00:06;1.50;;;1.40;;
10637;SDS011;47007;49.252;8.904;2023-05-07T02:00:56;1.52;;;1.42;;
10637;SDS011;47007;49.252;8.904;2023-05-07T02:01:38;1.20;;;1.20;;
10637;SDS011;47007;49.252;8.904;2023-05-07T02:02:19;1.52;;;1.20;;
10637;SDS011;47007;49.252;8.904;2023-05-07T02:03:01;1.55;;;1.45;;
10637;SDS011;47007;49.252;8.904;2023-05-07T02:04:04;1.40;;;1.30;;
10637;SDS011;47007;49.252;8.904;2023-05-07T02:04:45;1.60;;;1.50;;
10637;SDS011;47007;49.252;8.904;2023-05-07T02:05:29;1.48;;;1.40;;
10637;SDS011;47007;49.252;8.904;2023-05-07T02:06:18;1.33;;;1.30;;
10637;SDS011;47007;49.252;8.904;2023-05-07T02:07:00;1.60;;;1.50;;
10637;SDS011;47007;49.252;8.904;2023-05-07T02:07:43;1.90;;;1.60;;
10637;SDS011;47007;49.252;8.904;2023-05-07T02:08:25;1.50;;;1.40;;
10637;SDS011;47007;49.252;8.904;2023-05-07T02:09:07;1.45;;;1.20;;
10637;SDS011;47007;49.252;8.904;2023-05-07T02:09:51;1.65;;;1.27;;
10637;SDS011;47007;49.252;8.904;2023-05-07T02:10:33;2.70;;;1.65;;
10637;SDS011;47007;49.252;8.904;2023-05-07T02:11:15;1.70;;;1.38;;
10637;SDS011;47007;49.252;8.904;2023-05-07T02:11:57;1.40;;;1.30;;
10637;SDS011;47007;49.252;8.904;2023-05-07T02:12:38;2.28;;;1.67;;
10637;SDS011;47007;49.252;8.904;2023-05-07T02:13:20;1.85;;;1.75;;
10637;SDS011;47007;49.252;8.904;2023-05-07T02:14:03;2.22;;;1.58;;
10637;SDS011;47007;49.252;8.904;2023-05-07T02:14:45;1.83;;;1.73;;
10637;SDS011;47007;49.252;8.904;2023-05-07T02:15:29;2.97;;;1.92;;
10637;SDS011;47007;49.252;8.904;2023-05-07T02:16:14;1.60;;;1.50;;
10637;SDS011;47007;49.252;8.904;2023-05-07T02:16:56;1.75;;;1.65;;
10637;SDS011;47007;49.252;8.904;2023-05-07T02:17:57;1.75;;;1.65;;
10637;SDS011;47007;49.252;8.904;2023-05-07T02:18:41;1.67;;;1.58;;
10637;SDS011;47007;49.252;8.904;2023-05-07T02:19:23;1.50;;;1.20;;
10637;SDS011;47007;49.252;8.904;2023-05-07T02:20:04;1.63;;;1.52;;
10637;SDS011;47007;49.252;8.904;2023-05-07T02:20:48;1.85;;;1.33;;
10637;SDS011;47007;49.252;8.904;2023-05-07T02:21:30;2.25;;;1.67;;
10637;SDS011;47007;49.252;8.904;2023-05-07T02:22:11;1.58;;;1.48;;
10637;SDS011;47007;49.252;8.904;2023-05-07T02:22:53;1.77;;;1.67;;
10637;SDS011;47007;49.252;8.904;2023-05-07T02:23:35;1.42;;;1.33;;
10637;SDS011;47007;49.252;8.904;2023-05-07T02:24:16;1.70;;;1.60;;
10637;SDS011;47007;49.252;8.904;2023-05-07T02:24:58;1.58;;;1.38;;
10637;SDS011;47007;49.252;8.904;2023-05-07T02:25:40;1.63;;;1.52;;
10637;SDS011;47007;49.252;8.904;2023-05-07T02:26:21;1.65;;;1.55;;
10637;SDS011;47007;49.252;8.904;2023-05-07T02:27:03;1.52;;;1.42;;
10637;SDS011;47007;49.252;8.904;2023-05-07T02:27:45;2.40;;;2.00;;
10637;SDS011;47007;49.252;8.904;2023-05-07T02:28:27;2.55;;;1.70;;
10637;SDS011;47007;49.252;8.904;2023-05-07T02:29:15;1.70;;;1.60;;
10637;SDS011;47007;49.252;8.904;2023-05-07T02:29:56;2.17;;;1.80;;
10637;SDS011;47007;49.252;8.904;2023-05-07T02:30:38;2.58;;;1.52;;
10637;SDS011;47007;49.252;8.904;2023-05-07T02:31:20;1.65;;;1.55;;
10637;SDS011;47007;49.252;8.904;2023-05-07T02:32:02;2.70;;;1.40;;
10637;SDS011;47007;49.252;8.904;2023-05-07T02:32:44;1.85;;;1.55;;
10637;SDS011;47007;49.252;8.904;2023-05-07T02:33:25;2.20;;;1.40;;
10637;SDS011;47007;49.252;8.904;2023-05-07T02:34:07;2.58;;;1.40;;
10637;SDS011;47007;49.252;8.904;2023-05-07T02:34:50;1.52;;;1.42;;
10637;SDS011;47007;49.252;8.904;2023-05-07T02:35:32;2.13;;;1.50;;
10637;SDS011;47007;49.252;8.904;2023-05-07T02:36:14;1.40;;;1.20;;
10637;SDS011;47007;49.252;8.904;2023-05-07T02:37:05;1.75;;;1.65;;
10637;SDS011;47007;49.252;8.904;2023-05-07T02:37:49;2.65;;;1.40;;
10637;SDS011;47007;49.252;8.904;2023-05-07T02:38:34;1.38;;;1.38;;
10637;SDS011;47007;49.252;8.904;2023-05-07T02:39:16;1.33;;;1.25;;
10637;SDS011;47007;49.252;8.904;2023-05-07T02:39:57;2.17;;;1.73;;
10637;SDS011;47007;49.252;8.904;2023-05-07T02:40:39;2.65;;;1.77;;
10637;SDS011;47007;49.252;8.904;2023-05-07T02:41:21;1.60;;;1.50;;
10637;SDS011;47007;49.252;8.904;2023-05-07T02:42:03;1.58;;;1.40;;
10637;SDS011;47007;49.252;8.904;2023-05-07T02:42:44;1.17;;;1.15;;
10637;SDS011;47007;49.252;8.904;2023-05-07T02:43:26;1.15;;;1.15;;
10637;SDS011;47007;49.252;8.904;2023-05-07T02:44:08;1.50;;;1.40;;
10637;SDS011;47007;49.252;8.904;2023-05-07T02:44:51;1.40;;;1.30;;
10637;SDS011;47007;49.252;8.904;2023-05-07T02:45:32;1.65;;;1.55;;
10637;SDS011;47007;49.252;8.904;2023-05-07T02:46:15;1.23;;;1.20;;
10637;SDS011;47007;49.252;8.904;2023-05-07T02:47:01;1.50;;;1.40;;
10637;SDS011;47007;49.252;8.904;2023-05-07T02:47:43;1.67;;;1.58;;
10637;SDS011;47007;49.252;8.904;2023-05-07T02:48:25;1.42;;;1.33;;
10637;SDS011;47007;49.252;8.904;2023-05-07T02:49:10;1.60;;;1.50;;
10637;SDS011;47007;49.252;8.904;2023-05-07T02:49:52;1.40;;;1.40;;
10637;SDS011;47007;49.252;8.904;2023-05-07T02:50:34;1.63;;;1.50;;
10637;SDS011;47007;49.252;8.904;2023-05-07T02:51:19;2.03;;;1.90;;
10637;SDS011;47007;49.252;8.904;2023-05-07T02:52:05;2.22;;;2.10;;
10637;SDS011;47007;49.252;8.904;2023-05-07T02:52:46;1.75;;;1.63;;
10637;SDS011;47007;49.252;8.904;2023-05-07T02:53:29;3.05;;;2.85;;
10637;SDS011;47007;49.252;8.904;2023-05-07T02:54:11;2.20;;;2.00;;
10637;SDS011;47007;49.252;8.904;2023-05-07T02:54:52;2.33;;;2.13;;
10637;SDS011;47007;49.252;8.904;2023-05-07T02:55:34;2.67;;;2.45;;
10637;SDS011;47007;49.252;8.904;2023-05-07T02:56:16;1.95;;;1.85;;
10637;SDS011;47007;49.252;8.904;2023-05-07T02:56:57;1.98;;;1.88;;
10637;SDS011;47007;49.252;8.904;2023-05-07T02:57:40;3.42;;;3.05;;
10637;SDS011;47007;49.252;8.904;2023-05-07T02:58:22;2.50;;;2.40;;
10637;SDS011;47007;49.252;8.904;2023-05-07T02:59:04;3.05;;;2.75;;
10637;SDS011;47007;49.252;8.904;2023-05-07T02:59:51;2.40;;;2.30;;
10637;SDS011;47007;49.252;8.904;2023-05-07T03:00:34;2.10;;;2.00;;
10637;SDS011;47007;49.252;8.904;2023-05-07T03:01:25;1.65;;;1.50;;
10637;SDS011;47007;49.252;8.904;2023-05-07T03:02:13;2.25;;;1.30;;
10637;SDS011;47007;49.252;8.904;2023-05-07T03:02:55;1.55;;;1.45;;
10637;SDS011;47007;49.252;8.904;2023-05-07T03:03:37;1.23;;;1.20;;
10637;SDS011;47007;49.252;8.904;2023-05-07T03:04:19;1.13;;;1.10;;
10637;SDS011;47007;49.252;8.904;2023-05-07T03:05:00;1.20;;;1.10;;
10637;SDS011;47007;49.252;8.904;2023-05-07T03:05:43;1.60;;;1.17;;
10637;SDS011;47007;49.252;8.904;2023-05-07T03:06:24;1.60;;;1.50;;
10637;SDS011;47007;49.252;8.904;2023-05-07T03:07:06;1.00;;;1.00;;
10637;SDS011;47007;49.252;8.904;2023-05-07T03:07:48;1.33;;;1.20;;
10637;SDS011;47007;49.252;8.904;2023-05-07T03:08:29;1.50;;;1.48;;
10637;SDS011;47007;49.252;8.904;2023-05-07T03:09:11;1.38;;;1.27;;
10637;SDS011;47007;49.252;8.904;2023-05-07T03:09:53;1.00;;;1.00;;
10637;SDS011;47007;49.252;8.904;2023-05-07T03:10:35;1.73;;;1.27;;
10637;SDS011;47007;49.252;8.904;2023-05-07T03:11:17;1.13;;;1.13;;
10637;SDS011;47007;49.252;8.904;2023-05-07T03:11:59;1.30;;;1.10;;
10637;SDS011;47007;49.252;8.904;2023-05-07T03:12:41;1.38;;;1.27;;
10637;SDS011;47007;49.252;8.904;2023-05-07T03:13:25;1.50;;;1.40;;
10637;SDS011;47007;49.252;8.904;2023-05-07T03:14:07;1.30;;;1.20;;
10637;SDS011;47007;49.252;8.904;2023-05-07T03:14:48;0.95;;;0.95;;
10637;SDS011;47007;49.252;8.904;2023-05-07T03:15:30;1.73;;;1.40;;
10637;SDS011;47007;49.252;8.904;2023-05-07T03:16:12;1.08;;;1.08;;
10637;SDS011;47007;49.252;8.904;2023-05-07T03:16:54;1.45;;;1.13;;
10637;SDS011;47007;49.252;8.904;2023-05-07T03:17:36;1.00;;;1.00;;
10637;SDS011;47007;49.252;8.904;2023-05-07T03:18:18;1.85;;;1.23;;
10637;SDS011;47007;49.252;8.904;2023-05-07T03:18:59;1.17;;;1.13;;
10637;SDS011;47007;49.252;8.904;2023-05-07T03:19:43;1.60;;;1.30;;
10637;SDS011;47007;49.252;8.904;2023-05-07T03:20:24;1.55;;;1.40;;
10637;SDS011;47007;49.252;8.904;2023-05-07T03:21:06;1.60;;;1.50;;
10637;SDS011;47007;49.252;8.904;2023-05-07T03:21:48;1.50;;;1.40;;
10637;SDS011;47007;49.252;8.904;2023-05-07T03:22:30;1.30;;;1.20;;
10637;SDS011;47007;49.252;8.904;2023-05-07T03:23:12;1.83;;;1.20;;
10637;SDS011;47007;49.252;8.904;2023-05-07T03:23:54;2.00;;;1.00;;
10637;SDS011;47007;49.252;8.904;2023-05-07T03:24:36;1.13;;;1.13;;
10637;SDS011;47007;49.252;8.904;2023-05-07T03:25:17;1.10;;;1.10;;
10637;SDS011;47007;49.252;8.904;2023-05-07T03:25:59;1.33;;;1.27;;
10637;SDS011;47007;49.252;8.904;2023-05-07T03:26:41;1.35;;;1.10;;
10637;SDS011;47007;49.252;8.904;2023-05-07T03:27:22;1.20;;;1.20;;
10637;SDS011;47007;49.252;8.904;2023-05-07T03:28:06;1.27;;;1.20;;
10637;SDS011;47007;49.252;8.904;2023-05-07T03:29:00;1.48;;;1.10;;
10637;SDS011;47007;49.252;8.904;2023-05-07T03:29:42;2.00;;;1.50;;
10637;SDS011;47007;49.252;8.904;2023-05-07T03:30:24;2.10;;;1.48;;
10637;SDS011;47007;49.252;8.904;2023-05-07T03:31:05;1.88;;;1.77;;
10637;SDS011;47007;49.252;8.904;2023-05-07T03:31:47;1.67;;;1.58;;
10637;SDS011;47007;49.252;8.904;2023-05-07T03:32:29;1.98;;;1.60;;
10637;SDS011;47007;49.252;8.904;2023-05-07T03:33:11;2.60;;;1.70;;
10637;SDS011;47007;49.252;8.904;2023-05-07T03:33:54;1.40;;;1.30;;
10637;SDS011;47007;49.252;8.904;2023-05-07T03:34:37;1.33;;;1.33;;
10637;SDS011;47007;49.252;8.904;2023-05-07T03:35:19;1.63;;;1.52;;
10637;SDS011;47007;49.252;8.904;2023-05-07T03:36:02;2.63;;;1.75;;
10637;SDS011;47007;49.252;8.904;2023-05-07T03:36:43;2.28;;;1.80;;
10637;SDS011;47007;49.252;8.904;2023-05-07T03:37:26;1.65;;;1.48;;
10637;SDS011;47007;49.252;8.904;2023-05-07T03:38:08;1.48;;;1.38;;
10637;SDS011;47007;49.252;8.904;2023-05-07T03:38:50;1.50;;;1.40;;
10637;SDS011;47007;49.252;8.904;2023-05-07T03:39:35;1.40;;;1.30;;
10637;SDS011;47007;49.252;8.904;2023-05-07T03:40:17;1.50;;;1.40;;
10637;SDS011;47007;49.252;8.904;2023-05-07T03:41:03;1.30;;;1.30;;
10637;SDS011;47007;49.252;8.904;2023-05-07T03:41:44;1.50;;;1.50;;
10637;SDS011;47007;49.252;8.904;2023-05-07T03:42:26;1.40;;;1.40;;
10637;SDS011;47007;49.252;8.904;2023-05-07T03:43:08;1.50;;;1.40;;
10637;SDS011;47007;49.252;8.904;2023-05-07T03:43:53;1.42;;;1.33;;
10637;SDS011;47007;49.252;8.904;2023-05-07T03:44:34;2.22;;;1.30;;
10637;SDS011;47007;49.252;8.904;2023-05-07T03:45:17;1.65;;;1.55;;
10637;SDS011;47007;49.252;8.904;2023-05-07T03:46:05;1.20;;;1.20;;
10637;SDS011;47007;49.252;8.904;2023-05-07T03:46:47;2.08;;;1.50;;
10637;SDS011;47007;49.252;8.904;2023-05-07T03:47:28;1.50;;;1.40;;
10637;SDS011;47007;49.252;8.904;2023-05-07T03:48:10;1.45;;;1.30;;
10637;SDS011;47007;49.252;8.904;2023-05-07T03:48:52;1.65;;;1.40;;
10637;SDS011;47007;49.252;8.904;2023-05-07T03:49:34;1.50;;;1.40;;
10637;SDS011;47007;49.252;8.904;2023-05-07T03:50:16;1.65;;;1.55;;
10637;SDS011;47007;49.252;8.904;2023-05-07T03:50:58;1.77;;;1.67;;
10637;SDS011;47007;49.252;8.904;2023-05-07T03:51:45;1.80;;;1.70;;
10637;SDS011;47007;49.252;8.904;2023-05-07T03:52:27;2.90;;;1.90;;
10637;SDS011;47007;49.252;8.904;2023-05-07T03:53:11;1.83;;;1.73;;
10637;SDS011;47007;49.252;8.904;2023-05-07T03:53:53;3.03;;;1.80;;
10637;SDS011;47007;49.252;8.904;2023-05-07T03:54:36;2.10;;;1.88;;
10637;SDS011;47007;49.252;8.904;2023-05-07T03:55:18;1.90;;;1.60;;
10637;SDS011;47007;49.252;8.904;2023-05-07T03:56:05;1.52;;;1.42;;
10637;SDS011;47007;49.252;8.904;2023-05-07T03:56:50;2.50;;;1.55;;
10637;SDS011;47007;49.252;8.904;2023-05-07T03:57:32;1.42;;;1.40;;
10637;SDS011;47007;49.252;8.904;2023-05-07T03:58:14;1.70;;;1.60;;
10637;SDS011;47007;49.252;8.904;2023-05-07T03:58:56;2.65;;;1.67;;
10637;SDS011;47007;49.252;8.904;2023-05-07T03:59:38;1.98;;;1.73;;
10637;SDS011;47007;49.252;8.904;2023-05-07T04:00:21;1.75;;;1.65;;
10637;SDS011;47007;49.252;8.904;2023-05-07T04:01:03;1.48;;;1.38;;
10637;SDS011;47007;49.252;8.904;2023-05-07T04:01:45;1.75;;;1.65;;
10637;SDS011;47007;49.252;8.904;2023-05-07T04:02:30;1.83;;;1.73;;
10637;SDS011;47007;49.252;8.904;2023-05-07T04:03:13;1.73;;;1.60;;
10637;SDS011;47007;49.252;8.904;2023-05-07T04:03:55;2.10;;;1.75;;
10637;SDS011;47007;49.252;8.904;2023-05-07T04:04:38;1.52;;;1.42;;
10637;SDS011;47007;49.252;8.904;2023-05-07T04:05:20;1.92;;;1.70;;
10637;SDS011;47007;49.252;8.904;2023-05-07T04:06:05;2.03;;;1.88;;
10637;SDS011;47007;49.252;8.904;2023-05-07T04:06:49;2.05;;;1.92;;
10637;SDS011;47007;49.252;8.904;2023-05-07T04:07:30;2.40;;;2.20;;
10637;SDS011;47007;49.252;8.904;2023-05-07T04:08:12;2.40;;;2.00;;
10637;SDS011;47007;49.252;8.904;2023-05-07T04:08:57;2.15;;;2.05;;
10637;SDS011;47007;49.252;8.904;2023-05-07T04:09:38;2.30;;;2.10;;
10637;SDS011;47007;49.252;8.904;2023-05-07T04:10:20;3.22;;;2.40;;
10637;SDS011;47007;49.252;8.904;2023-05-07T04:11:04;2.05;;;1.85;;
10637;SDS011;47007;49.252;8.904;2023-05-07T04:11:47;2.92;;;2.05;;
10637;SDS011;47007;49.252;8.904;2023-05-07T04:12:28;2.50;;;2.35;;
10637;SDS011;47007;49.252;8.904;2023-05-07T04:13:10;2.65;;;2.30;;
10637;SDS011;47007;49.252;8.904;2023-05-07T04:13:52;2.20;;;2.10;;
10637;SDS011;47007;49.252;8.904;2023-05-07T04:14:36;2.53;;;2.17;;
10637;SDS011;47007;49.252;8.904;2023-05-07T04:15:18;2.55;;;2.13;;
10637;SDS011;47007;49.252;8.904;2023-05-07T04:16:01;2.10;;;2.00;;
10637;SDS011;47007;49.252;8.904;2023-05-07T04:16:44;2.03;;;1.92;;
10637;SDS011;47007;49.252;8.904;2023-05-07T04:17:26;3.13;;;2.33;;
10637;SDS011;47007;49.252;8.904;2023-05-07T04:18:07;2.83;;;1.92;;
10637;SDS011;47007;49.252;8.904;2023-05-07T04:18:50;2.58;;;2.30;;
10637;SDS011;47007;49.252;8.904;2023-05-07T04:19:32;4.05;;;2.30;;